sensor_id;sensor_type;location;lat;lon;timestamp;temperature;humidity
584;HTU21D;27024;54.068;12.116;2023-10-13T00:00:48;7.35;118.99
584;HTU21D;27024;54.068;12.116;2023-10-13T00:03:15;7.32;118.99
584;HTU21D;27024;54.068;12.116;2023-10-13T00:05:43;7.28;118.99
584;HTU21D;27024;54.068;12.116;2023-10-13T00:08:11;7.41;118.99
584;HTU21D;27024;54.068;12.116;2023-10-13T00:10:38;7.50;118.99
584;HTU21D;27024;54.068;12.116;2023-10-13T00:13:05;7.59;118.99
584;HTU21D;27024;54.068;12.116;2023-10-13T00:15:46;7.62;118.99
584;HTU21D;27024;54.068;12.116;2023-10-13T00:18:27;7.63;118.99
584;HTU21D;27024;54.068;12.116;2023-10-13T00:21:01;7.82;118.99
584;HTU21D;27024;54.068;12.116;2023-10-13T00:23:30;7.77;118.99
584;HTU21D;27024;54.068;12.116;2023-10-13T00:25:59;7.94;118.99
584;HTU21D;27024;54.068;12.116;2023-10-13T00:28:29;7.98;118.99
584;HTU21D;27024;54.068;12.116;2023-10-13T00:31:13;8.04;118.99
584;HTU21D;27024;54.068;12.116;2023-10-13T00:33:41;8.05;118.99
584;HTU21D;27024;54.068;12.116;2023-10-13T00:36:08;8.06;118.99
584;HTU21D;27024;54.068;12.116;2023-10-13T00:38:46;8.07;118.99
584;HTU21D;27024;54.068;12.116;2023-10-13T00:41:18;8.13;118.99
584;HTU21D;27024;54.068;12.116;2023-10-13T00:44:00;8.19;118.99
584;HTU21D;27024;54.068;12.116;2023-10-13T00:46:38;8.33;118.99
584;HTU21D;27024;54.068;12.116;2023-10-13T00:49:06;8.24;118.99
584;HTU21D;27024;54.068;12.116;2023-10-13T00:51:36;8.28;118.99
584;HTU21D;27024;54.068;12.116;2023-10-13T00:54:08;8.27;118.99
584;HTU21D;27024;54.068;12.116;2023-10-13T00:56:42;8.35;118.99
584;HTU21D;27024;54.068;12.116;2023-10-13T00:59:20;8.34;118.99
584;HTU21D;27024;54.068;12.116;2023-10-13T01:01:52;8.41;118.99
584;HTU21D;27024;54.068;12.116;2023-10-13T01:04:22;8.44;118.99
584;HTU21D;27024;54.068;12.116;2023-10-13T01:06:54;8.45;118.99
584;HTU21D;27024;54.068;12.116;2023-10-13T01:09:21;8.41;118.99
584;HTU21D;27024;54.068;12.116;2023-10-13T01:11:51;8.48;118.99
584;HTU21D;27024;54.068;12.116;2023-10-13T01:14:22;8.49;118.99
584;HTU21D;27024;54.068;12.116;2023-10-13T01:16:53;8.51;118.99
584;HTU21D;27024;54.068;12.116;2023-10-13T01:19:22;8.62;118.99
584;HTU21D;27024;54.068;12.116;2023-10-13T01:21:52;8.71;118.99
584;HTU21D;27024;54.068;12.116;2023-10-13T01:24:24;8.66;118.99
584;HTU21D;27024;54.068;12.116;2023-10-13T01:26:53;8.77;118.99
584;HTU21D;27024;54.068;12.116;2023-10-13T01:29:19;8.75;118.99
584;HTU21D;27024;54.068;12.116;2023-10-13T01:31:52;8.75;118.99
584;HTU21D;27024;54.068;12.116;2023-10-13T01:34:19;8.75;118.99
584;HTU21D;27024;54.068;12.116;2023-10-13T01:39:19;8.81;118.99
584;HTU21D;27024;54.068;12.116;2023-10-13T01:41:48;8.87;118.99
584;HTU21D;27024;54.068;12.116;2023-10-13T01:46:49;8.90;118.99
584;HTU21D;27024;54.068;12.116;2023-10-13T01:49:18;8.89;118.99
584;HTU21D;27024;54.068;12.116;2023-10-13T01:51:45;8.95;118.99
584;HTU21D;27024;54.068;12.116;2023-10-13T01:54:14;8.90;118.99
584;HTU21D;27024;54.068;12.116;2023-10-13T01:56:42;8.97;118.99
584;HTU21D;27024;54.068;12.116;2023-10-13T01:59:11;8.91;118.99
584;HTU21D;27024;54.068;12.116;2023-10-13T02:01:39;8.92;118.99
584;HTU21D;27024;54.068;12.116;2023-10-13T02:04:07;9.00;118.99
584;HTU21D;27024;54.068;12.116;2023-10-13T02:06:35;9.04;118.99
584;HTU21D;27024;54.068;12.116;2023-10-13T02:09:05;9.03;118.99
584;HTU21D;27024;54.068;12.116;2023-10-13T02:11:52;9.12;118.99
584;HTU21D;27024;54.068;12.116;2023-10-13T02:14:23;9.09;118.99
584;HTU21D;27024;54.068;12.116;2023-10-13T02:16:52;9.19;118.99
584;HTU21D;27024;54.068;12.116;2023-10-13T02:19:39;9.26;118.99
584;HTU21D;27024;54.068;12.116;2023-10-13T02:22:12;9.27;118.99
584;HTU21D;27024;54.068;12.116;2023-10-13T02:24:55;9.31;118.99
584;HTU21D;27024;54.068;12.116;2023-10-13T02:27:28;9.32;118.99
584;HTU21D;27024;54.068;12.116;2023-10-13T02:29:55;9.36;118.99
584;HTU21D;27024;54.068;12.116;2023-10-13T02:32:25;9.40;118.99
584;HTU21D;27024;54.068;12.116;2023-10-13T02:34:53;9.44;118.99
584;HTU21D;27024;54.068;12.116;2023-10-13T02:37:24;9.44;118.99
584;HTU21D;27024;54.068;12.116;2023-10-13T02:39:51;9.47;118.99
584;HTU21D;27024;54.068;12.116;2023-10-13T02:42:18;9.60;118.99
584;HTU21D;27024;54.068;12.116;2023-10-13T02:44:51;9.56;118.99
584;HTU21D;27024;54.068;12.116;2023-10-13T02:47:17;9.56;118.99
584;HTU21D;27024;54.068;12.116;2023-10-13T02:49:46;9.56;118.99
584;HTU21D;27024;54.068;12.116;2023-10-13T02:52:14;9.62;118.99
584;HTU21D;27024;54.068;12.116;2023-10-13T02:54:42;9.65;118.99
584;HTU21D;27024;54.068;12.116;2023-10-13T02:57:14;9.74;118.99
584;HTU21D;27024;54.068;12.116;2023-10-13T02:59:45;9.71;118.99
584;HTU21D;27024;54.068;12.116;2023-10-13T03:02:15;9.80;118.99
584;HTU21D;27024;54.068;12.116;2023-10-13T03:04:57;9.81;118.99
584;HTU21D;27024;54.068;12.116;2023-10-13T03:07:36;9.84;118.99
584;HTU21D;27024;54.068;12.116;2023-10-13T03:10:03;9.85;118.99
584;HTU21D;27024;54.068;12.116;2023-10-13T03:12:38;9.88;118.99
584;HTU21D;27024;54.068;12.116;2023-10-13T03:15:06;9.92;118.99
584;HTU21D;27024;54.068;12.116;2023-10-13T03:17:47;9.96;118.99
584;HTU21D;27024;54.068;12.116;2023-10-13T03:20:17;9.99;118.99
584;HTU21D;27024;54.068;12.116;2023-10-13T03:22:52;9.97;118.99
584;HTU21D;27024;54.068;12.116;2023-10-13T03:25:19;10.08;118.99
584;HTU21D;27024;54.068;12.116;2023-10-13T03:27:56;10.16;118.99
584;HTU21D;27024;54.068;12.116;2023-10-13T03:30:27;10.23;118.99
584;HTU21D;27024;54.068;12.116;2023-10-13T03:33:03;10.16;118.99
584;HTU21D;27024;54.068;12.116;2023-10-13T03:35:34;10.18;118.99
584;HTU21D;27024;54.068;12.116;2023-10-13T03:38:04;10.21;118.99
584;HTU21D;27024;54.068;12.116;2023-10-13T03:40:45;10.25;118.99
584;HTU21D;27024;54.068;12.116;2023-10-13T03:43:15;10.31;118.99
584;HTU21D;27024;54.068;12.116;2023-10-13T03:45:50;10.34;118.99
584;HTU21D;27024;54.068;12.116;2023-10-13T03:48:28;10.42;118.99
584;HTU21D;27024;54.068;12.116;2023-10-13T03:50:56;10.37;118.99
584;HTU21D;27024;54.068;12.116;2023-10-13T03:53:42;10.39;118.99
584;HTU21D;27024;54.068;12.116;2023-10-13T03:56:27;10.43;118.99
584;HTU21D;27024;54.068;12.116;2023-10-13T03:58:59;10.51;118.99
584;HTU21D;27024;54.068;12.116;2023-10-13T04:01:46;10.51;118.99
584;HTU21D;27024;54.068;12.116;2023-10-13T04:04:19;10.54;118.99
584;HTU21D;27024;54.068;12.116;2023-10-13T04:07:14;10.57;118.99
584;HTU21D;27024;54.068;12.116;2023-10-13T04:10:07;10.64;118.99
584;HTU21D;27024;54.068;12.116;2023-10-13T04:13:06;10.69;118.99
584;HTU21D;27024;54.068;12.116;2023-10-13T04:16:08;10.65;118.99
584;HTU21D;27024;54.068;12.116;2023-10-13T04:19:02;10.73;118.99
584;HTU21D;27024;54.068;12.116;2023-10-13T04:21:29;10.78;118.99
584;HTU21D;27024;54.068;12.116;2023-10-13T04:24:14;10.93;118.99
584;HTU21D;27024;54.068;12.116;2023-10-13T04:26:44;10.96;118.99
584;HTU21D;27024;54.068;12.116;2023-10-13T04:29:29;11.00;118.99
584;HTU21D;27024;54.068;12.116;2023-10-13T04:32:15;11.05;118.99
584;HTU21D;27024;54.068;12.116;2023-10-13T04:34:59;11.05;118.99
584;HTU21D;27024;54.068;12.116;2023-10-13T04:37:44;11.05;118.99
584;HTU21D;27024;54.068;12.116;2023-10-13T04:40:21;11.16;118.99
584;HTU21D;27024;54.068;12.116;2023-10-13T04:42:52;11.18;118.99
584;HTU21D;27024;54.068;12.116;2023-10-13T04:45:31;11.19;118.99
584;HTU21D;27024;54.068;12.116;2023-10-13T04:47:59;11.29;118.99
584;HTU21D;27024;54.068;12.116;2023-10-13T04:50:48;11.30;118.99
584;HTU21D;27024;54.068;12.116;2023-10-13T04:53:25;11.41;118.99
584;HTU21D;27024;54.068;12.116;2023-10-13T04:56:03;11.45;118.99
584;HTU21D;27024;54.068;12.116;2023-10-13T04:58:31;11.52;118.99
584;HTU21D;27024;54.068;12.116;2023-10-13T05:01:04;11.47;118.99
584;HTU21D;27024;54.068;12.116;2023-10-13T05:03:49;11.46;118.99
584;HTU21D;27024;54.068;12.116;2023-10-13T05:06:32;11.44;118.99
584;HTU21D;27024;54.068;12.116;2023-10-13T05:09:12;11.47;118.99
584;HTU21D;27024;54.068;12.116;2023-10-13T05:11:58;11.60;118.99
584;HTU21D;27024;54.068;12.116;2023-10-13T05:14:44;11.56;118.99
584;HTU21D;27024;54.068;12.116;2023-10-13T05:17:29;11.58;118.99
584;HTU21D;27024;54.068;12.116;2023-10-13T05:20:15;11.59;118.99
584;HTU21D;27024;54.068;12.116;2023-10-13T05:23:00;11.63;118.99
584;HTU21D;27024;54.068;12.116;2023-10-13T05:25:45;11.66;118.99
584;HTU21D;27024;54.068;12.116;2023-10-13T05:28:31;11.63;118.99
584;HTU21D;27024;54.068;12.116;2023-10-13T05:31:17;11.71;118.99
584;HTU21D;27024;54.068;12.116;2023-10-13T05:34:02;11.68;118.99
584;HTU21D;27024;54.068;12.116;2023-10-13T05:36:47;11.73;118.99
584;HTU21D;27024;54.068;12.116;2023-10-13T05:39:33;11.79;118.99
584;HTU21D;27024;54.068;12.116;2023-10-13T05:42:18;11.81;118.99
584;HTU21D;27024;54.068;12.116;2023-10-13T05:45:04;11.81;118.99
584;HTU21D;27024;54.068;12.116;2023-10-13T05:47:34;11.84;118.99
584;HTU21D;27024;54.068;12.116;2023-10-13T05:50:11;11.87;118.99
584;HTU21D;27024;54.068;12.116;2023-10-13T05:52:48;11.92;118.99
584;HTU21D;27024;54.068;12.116;2023-10-13T05:55:25;11.98;118.99
584;HTU21D;27024;54.068;12.116;2023-10-13T05:58:11;12.01;118.99
584;HTU21D;27024;54.068;12.116;2023-10-13T06:00:57;12.04;118.99
584;HTU21D;27024;54.068;12.116;2023-10-13T06:03:43;12.01;118.99
584;HTU21D;27024;54.068;12.116;2023-10-13T06:06:29;12.11;118.99
584;HTU21D;27024;54.068;12.116;2023-10-13T06:09:14;12.13;118.99
584;HTU21D;27024;54.068;12.116;2023-10-13T06:12:00;12.13;118.99
584;HTU21D;27024;54.068;12.116;2023-10-13T06:14:46;12.19;118.99
584;HTU21D;27024;54.068;12.116;2023-10-13T06:17:31;12.32;118.99
584;HTU21D;27024;54.068;12.116;2023-10-13T06:20:17;12.29;118.99
584;HTU21D;27024;54.068;12.116;2023-10-13T06:23:02;12.25;118.99
584;HTU21D;27024;54.068;12.116;2023-10-13T06:25:51;12.33;118.99
584;HTU21D;27024;54.068;12.116;2023-10-13T06:28:37;12.37;118.99
584;HTU21D;27024;54.068;12.116;2023-10-13T06:31:09;12.43;118.99
584;HTU21D;27024;54.068;12.116;2023-10-13T06:33:49;12.41;118.99
584;HTU21D;27024;54.068;12.116;2023-10-13T06:36:16;12.44;118.99
584;HTU21D;27024;54.068;12.116;2023-10-13T06:38:44;12.47;118.99
584;HTU21D;27024;54.068;12.116;2023-10-13T06:41:11;12.53;118.99
584;HTU21D;27024;54.068;12.116;2023-10-13T06:43:59;12.63;118.99
584;HTU21D;27024;54.068;12.116;2023-10-13T06:46:27;12.62;118.99
584;HTU21D;27024;54.068;12.116;2023-10-13T06:48:56;12.61;118.99
584;HTU21D;27024;54.068;12.116;2023-10-13T06:51:28;12.63;118.99
584;HTU21D;27024;54.068;12.116;2023-10-13T06:54:06;12.73;118.99
584;HTU21D;27024;54.068;12.116;2023-10-13T06:56:38;12.77;118.99
584;HTU21D;27024;54.068;12.116;2023-10-13T06:59:07;12.86;118.99
584;HTU21D;27024;54.068;12.116;2023-10-13T07:01:34;12.84;118.99
584;HTU21D;27024;54.068;12.116;2023-10-13T07:04:09;12.93;118.99
584;HTU21D;27024;54.068;12.116;2023-10-13T07:06:44;12.89;118.99
584;HTU21D;27024;54.068;12.116;2023-10-13T07:09:21;12.96;118.99
584;HTU21D;27024;54.068;12.116;2023-10-13T07:12:06;12.94;118.99
584;HTU21D;27024;54.068;12.116;2023-10-13T07:14:39;13.01;118.99
584;HTU21D;27024;54.068;12.116;2023-10-13T07:17:06;13.08;118.99
584;HTU21D;27024;54.068;12.116;2023-10-13T07:19:35;13.11;118.99
584;HTU21D;27024;54.068;12.116;2023-10-13T07:22:12;13.12;118.99
584;HTU21D;27024;54.068;12.116;2023-10-13T07:24:49;13.19;118.99
584;HTU21D;27024;54.068;12.116;2023-10-13T07:27:17;13.26;118.99
584;HTU21D;27024;54.068;12.116;2023-10-13T07:29:54;13.31;118.99
584;HTU21D;27024;54.068;12.116;2023-10-13T07:32:54;13.29;118.99
584;HTU21D;27024;54.068;12.116;2023-10-13T07:35:25;13.34;118.99
584;HTU21D;27024;54.068;12.116;2023-10-13T07:37:53;13.38;118.99
584;HTU21D;27024;54.068;12.116;2023-10-13T07:40:21;13.40;118.99
584;HTU21D;27024;54.068;12.116;2023-10-13T07:42:54;13.43;118.99
584;HTU21D;27024;54.068;12.116;2023-10-13T07:45:30;13.45;118.99
584;HTU21D;27024;54.068;12.116;2023-10-13T07:48:04;13.49;118.99
584;HTU21D;27024;54.068;12.116;2023-10-13T07:50:39;13.54;118.99
584;HTU21D;27024;54.068;12.116;2023-10-13T07:53:07;13.56;118.99
584;HTU21D;27024;54.068;12.116;2023-10-13T07:55:46;13.59;118.99
584;HTU21D;27024;54.068;12.116;2023-10-13T07:58:14;13.58;118.99
584;HTU21D;27024;54.068;12.116;2023-10-13T08:00:41;13.61;118.99
584;HTU21D;27024;54.068;12.116;2023-10-13T08:03:11;13.66;118.99
584;HTU21D;27024;54.068;12.116;2023-10-13T08:05:51;13.70;118.99
584;HTU21D;27024;54.068;12.116;2023-10-13T08:08:25;13.75;118.99
584;HTU21D;27024;54.068;12.116;2023-10-13T08:10:52;13.76;118.99
584;HTU21D;27024;54.068;12.116;2023-10-13T08:13:22;13.77;118.99
584;HTU21D;27024;54.068;12.116;2023-10-13T08:15:49;13.83;118.99
584;HTU21D;27024;54.068;12.116;2023-10-13T08:18:16;13.95;118.99
584;HTU21D;27024;54.068;12.116;2023-10-13T08:21:03;13.94;118.99
584;HTU21D;27024;54.068;12.116;2023-10-13T08:23:31;14.03;118.99
584;HTU21D;27024;54.068;12.116;2023-10-13T08:26:16;14.00;118.99
584;HTU21D;27024;54.068;12.116;2023-10-13T08:29:18;14.08;118.99
584;HTU21D;27024;54.068;12.116;2023-10-13T08:31:51;14.12;118.99
584;HTU21D;27024;54.068;12.116;2023-10-13T08:34:34;14.14;118.99
584;HTU21D;27024;54.068;12.116;2023-10-13T08:37:10;14.13;118.99
584;HTU21D;27024;54.068;12.116;2023-10-13T08:39:56;14.19;118.99
584;HTU21D;27024;54.068;12.116;2023-10-13T08:42:53;14.25;118.99
584;HTU21D;27024;54.068;12.116;2023-10-13T08:45:31;14.34;118.99
584;HTU21D;27024;54.068;12.116;2023-10-13T08:48:02;14.35;118.99
584;HTU21D;27024;54.068;12.116;2023-10-13T08:56:04;14.43;118.99
584;HTU21D;27024;54.068;12.116;2023-10-13T08:58:33;14.43;118.99
584;HTU21D;27024;54.068;12.116;2023-10-13T09:01:26;14.52;118.99
584;HTU21D;27024;54.068;12.116;2023-10-13T09:04:17;14.57;118.99
584;HTU21D;27024;54.068;12.116;2023-10-13T09:12:14;14.56;118.99
584;HTU21D;27024;54.068;12.116;2023-10-13T09:14:42;14.60;118.99
584;HTU21D;27024;54.068;12.116;2023-10-13T09:17:14;14.60;118.99
584;HTU21D;27024;54.068;12.116;2023-10-13T09:19:51;14.63;118.99
584;HTU21D;27024;54.068;12.116;2023-10-13T09:22:29;14.63;118.99
584;HTU21D;27024;54.068;12.116;2023-10-13T09:25:03;14.66;118.99
584;HTU21D;27024;54.068;12.116;2023-10-13T09:27:32;14.66;118.99
584;HTU21D;27024;54.068;12.116;2023-10-13T09:30:01;14.67;118.99
584;HTU21D;27024;54.068;12.116;2023-10-13T09:32:58;14.72;118.99
584;HTU21D;27024;54.068;12.116;2023-10-13T09:35:28;14.71;118.99
584;HTU21D;27024;54.068;12.116;2023-10-13T09:38:00;14.72;118.99
584;HTU21D;27024;54.068;12.116;2023-10-13T09:40:30;14.75;118.99
584;HTU21D;27024;54.068;12.116;2023-10-13T09:43:04;14.70;118.99
584;HTU21D;27024;54.068;12.116;2023-10-13T09:45:35;14.78;118.99
584;HTU21D;27024;54.068;12.116;2023-10-13T09:48:34;14.77;118.99
584;HTU21D;27024;54.068;12.116;2023-10-13T09:51:02;14.81;118.99
584;HTU21D;27024;54.068;12.116;2023-10-13T09:53:32;14.85;118.99
584;HTU21D;27024;54.068;12.116;2023-10-13T09:56:11;14.95;118.99
584;HTU21D;27024;54.068;12.116;2023-10-13T09:58:48;14.92;118.99
584;HTU21D;27024;54.068;12.116;2023-10-13T10:01:25;14.95;118.99
584;HTU21D;27024;54.068;12.116;2023-10-13T10:04:11;14.95;118.99
584;HTU21D;27024;54.068;12.116;2023-10-13T10:06:56;14.98;118.99
584;HTU21D;27024;54.068;12.116;2023-10-13T10:09:28;15.03;118.99
584;HTU21D;27024;54.068;12.116;2023-10-13T10:17:43;15.06;118.99
584;HTU21D;27024;54.068;12.116;2023-10-13T10:20:10;15.09;118.99
584;HTU21D;27024;54.068;12.116;2023-10-13T10:22:56;15.15;118.99
584;HTU21D;27024;54.068;12.116;2023-10-13T10:25:31;15.11;118.99
584;HTU21D;27024;54.068;12.116;2023-10-13T10:28:06;15.14;118.99
584;HTU21D;27024;54.068;12.116;2023-10-13T10:30:35;15.14;118.99
584;HTU21D;27024;54.068;12.116;2023-10-13T10:33:02;15.12;118.99
584;HTU21D;27024;54.068;12.116;2023-10-13T10:35:35;15.17;118.99
584;HTU21D;27024;54.068;12.116;2023-10-13T10:38:12;15.16;118.99
584;HTU21D;27024;54.068;12.116;2023-10-13T10:46:26;15.17;118.99
584;HTU21D;27024;54.068;12.116;2023-10-13T10:48:57;15.17;118.99
584;HTU21D;27024;54.068;12.116;2023-10-13T10:51:28;15.15;118.99
584;HTU21D;27024;54.068;12.116;2023-10-13T10:53:59;15.25;118.99
584;HTU21D;27024;54.068;12.116;2023-10-13T10:56:38;15.24;118.99
584;HTU21D;27024;54.068;12.116;2023-10-13T10:59:06;15.31;118.99
584;HTU21D;27024;54.068;12.116;2023-10-13T11:01:46;15.38;118.99
584;HTU21D;27024;54.068;12.116;2023-10-13T11:04:18;15.47;118.99
584;HTU21D;27024;54.068;12.116;2023-10-13T11:06:50;15.53;118.99
584;HTU21D;27024;54.068;12.116;2023-10-13T11:09:25;15.51;118.99
584;HTU21D;27024;54.068;12.116;2023-10-13T11:11:56;15.59;118.99
584;HTU21D;27024;54.068;12.116;2023-10-13T11:14:30;15.63;118.99
584;HTU21D;27024;54.068;12.116;2023-10-13T11:16:58;15.75;118.99
584;HTU21D;27024;54.068;12.116;2023-10-13T11:19:42;15.76;118.99
584;HTU21D;27024;54.068;12.116;2023-10-13T11:22:17;15.97;118.99
584;HTU21D;27024;54.068;12.116;2023-10-13T11:25:00;15.93;118.99
584;HTU21D;27024;54.068;12.116;2023-10-13T11:27:32;15.98;118.99
584;HTU21D;27024;54.068;12.116;2023-10-13T11:30:17;15.97;118.99
584;HTU21D;27024;54.068;12.116;2023-10-13T11:33:01;15.95;118.99
584;HTU21D;27024;54.068;12.116;2023-10-13T11:35:36;15.97;118.99
584;HTU21D;27024;54.068;12.116;2023-10-13T11:38:35;15.97;118.99
584;HTU21D;27024;54.068;12.116;2023-10-13T11:41:17;16.02;118.99
584;HTU21D;27024;54.068;12.116;2023-10-13T11:43:48;15.98;118.99
584;HTU21D;27024;54.068;12.116;2023-10-13T11:46:20;16.06;118.99
584;HTU21D;27024;54.068;12.116;2023-10-13T11:51:44;16.06;118.99
584;HTU21D;27024;54.068;12.116;2023-10-13T11:54:18;16.08;118.99
584;HTU21D;27024;54.068;12.116;2023-10-13T11:56:47;16.15;118.99
584;HTU21D;27024;54.068;12.116;2023-10-13T11:59:14;16.16;118.99
584;HTU21D;27024;54.068;12.116;2023-10-13T12:01:49;16.18;118.99
584;HTU21D;27024;54.068;12.116;2023-10-13T12:04:36;16.28;118.99
584;HTU21D;27024;54.068;12.116;2023-10-13T12:07:20;16.39;118.99
584;HTU21D;27024;54.068;12.116;2023-10-13T12:09:49;16.39;118.99
584;HTU21D;27024;54.068;12.116;2023-10-13T12:12:26;16.60;118.99
584;HTU21D;27024;54.068;12.116;2023-10-13T12:14:54;16.61;118.99
584;HTU21D;27024;54.068;12.116;2023-10-13T12:17:26;16.61;118.99
584;HTU21D;27024;54.068;12.116;2023-10-13T12:20:07;16.63;118.99
584;HTU21D;27024;54.068;12.116;2023-10-13T12:22:38;16.65;118.99
584;HTU21D;27024;54.068;12.116;2023-10-13T12:25:06;16.74;118.99
584;HTU21D;27024;54.068;12.116;2023-10-13T12:27:54;16.81;118.99
584;HTU21D;27024;54.068;12.116;2023-10-13T12:30:25;16.94;118.99
584;HTU21D;27024;54.068;12.116;2023-10-13T12:33:10;17.01;118.99
584;HTU21D;27024;54.068;12.116;2023-10-13T12:35:41;17.05;118.99
584;HTU21D;27024;54.068;12.116;2023-10-13T12:38:27;17.13;118.99
584;HTU21D;27024;54.068;12.116;2023-10-13T12:41:21;17.06;118.99
584;HTU21D;27024;54.068;12.116;2023-10-13T12:44:07;17.07;118.99
584;HTU21D;27024;54.068;12.116;2023-10-13T12:46:53;17.07;118.99
584;HTU21D;27024;54.068;12.116;2023-10-13T12:49:39;17.02;118.99
584;HTU21D;27024;54.068;12.116;2023-10-13T12:52:11;17.04;118.99
584;HTU21D;27024;54.068;12.116;2023-10-13T12:54:52;17.02;118.99
584;HTU21D;27024;54.068;12.116;2023-10-13T12:57:26;17.11;118.99
584;HTU21D;27024;54.068;12.116;2023-10-13T12:59:54;17.20;118.99
584;HTU21D;27024;54.068;12.116;2023-10-13T13:02:22;17.24;118.99
584;HTU21D;27024;54.068;12.116;2023-10-13T13:04:52;17.35;118.99
584;HTU21D;27024;54.068;12.116;2023-10-13T13:07:40;17.34;118.99
584;HTU21D;27024;54.068;12.116;2023-10-13T13:10:25;17.45;118.99
584;HTU21D;27024;54.068;12.116;2023-10-13T13:13:12;17.58;118.99
584;HTU21D;27024;54.068;12.116;2023-10-13T13:15:40;17.64;118.99
584;HTU21D;27024;54.068;12.116;2023-10-13T13:18:07;17.65;118.99
584;HTU21D;27024;54.068;12.116;2023-10-13T13:20:38;17.67;118.99
584;HTU21D;27024;54.068;12.116;2023-10-13T13:23:19;17.75;118.99
584;HTU21D;27024;54.068;12.116;2023-10-13T13:25:46;17.76;118.99
584;HTU21D;27024;54.068;12.116;2023-10-13T13:28:14;17.78;118.99
584;HTU21D;27024;54.068;12.116;2023-10-13T13:30:41;17.78;118.99
584;HTU21D;27024;54.068;12.116;2023-10-13T13:33:08;17.79;118.99
584;HTU21D;27024;54.068;12.116;2023-10-13T13:35:39;17.81;118.99
584;HTU21D;27024;54.068;12.116;2023-10-13T13:38:09;17.84;118.99
584;HTU21D;27024;54.068;12.116;2023-10-13T13:40:37;17.90;118.99
584;HTU21D;27024;54.068;12.116;2023-10-13T13:43:05;17.95;118.99
584;HTU21D;27024;54.068;12.116;2023-10-13T13:45:33;17.92;118.99
584;HTU21D;27024;54.068;12.116;2023-10-13T13:48:01;17.88;118.99
584;HTU21D;27024;54.068;12.116;2023-10-13T13:50:37;17.95;118.99
584;HTU21D;27024;54.068;12.116;2023-10-13T13:53:07;18.02;118.99
584;HTU21D;27024;54.068;12.116;2023-10-13T13:55:38;18.00;118.99
584;HTU21D;27024;54.068;12.116;2023-10-13T14:01:48;18.06;118.99
584;HTU21D;27024;54.068;12.116;2023-10-13T14:04:15;18.09;118.99
584;HTU21D;27024;54.068;12.116;2023-10-13T14:06:44;18.12;118.99
584;HTU21D;27024;54.068;12.116;2023-10-13T14:09:11;18.19;118.99
584;HTU21D;27024;54.068;12.116;2023-10-13T14:11:42;18.19;118.99
584;HTU21D;27024;54.068;12.116;2023-10-13T14:14:28;18.28;118.99
584;HTU21D;27024;54.068;12.116;2023-10-13T14:16:55;18.28;118.99
584;HTU21D;27024;54.068;12.116;2023-10-13T14:19:35;18.41;118.99
584;HTU21D;27024;54.068;12.116;2023-10-13T14:22:07;18.40;118.99
584;HTU21D;27024;54.068;12.116;2023-10-13T14:24:35;18.40;118.99
584;HTU21D;27024;54.068;12.116;2023-10-13T14:27:03;18.46;118.99
584;HTU21D;27024;54.068;12.116;2023-10-13T14:29:39;18.40;118.99
584;HTU21D;27024;54.068;12.116;2023-10-13T14:32:13;18.42;118.99
584;HTU21D;27024;54.068;12.116;2023-10-13T14:34:43;18.46;118.99
584;HTU21D;27024;54.068;12.116;2023-10-13T14:37:10;18.47;118.99
584;HTU21D;27024;54.068;12.116;2023-10-13T14:39:40;18.48;118.99
584;HTU21D;27024;54.068;12.116;2023-10-13T14:42:07;18.44;118.99
584;HTU21D;27024;54.068;12.116;2023-10-13T14:44:35;18.51;118.99
584;HTU21D;27024;54.068;12.116;2023-10-13T14:47:03;18.48;118.99
584;HTU21D;27024;54.068;12.116;2023-10-13T14:49:32;18.51;118.99
584;HTU21D;27024;54.068;12.116;2023-10-13T14:52:02;18.50;118.99
584;HTU21D;27024;54.068;12.116;2023-10-13T14:54:29;18.54;118.99
584;HTU21D;27024;54.068;12.116;2023-10-13T14:57:03;18.55;118.99
584;HTU21D;27024;54.068;12.116;2023-10-13T14:59:30;18.57;118.99
584;HTU21D;27024;54.068;12.116;2023-10-13T15:02:01;18.57;118.99
584;HTU21D;27024;54.068;12.116;2023-10-13T15:04:29;18.62;118.99
584;HTU21D;27024;54.068;12.116;2023-10-13T15:07:00;18.56;118.99
584;HTU21D;27024;54.068;12.116;2023-10-13T15:09:30;18.52;118.99
584;HTU21D;27024;54.068;12.116;2023-10-13T15:11:56;18.56;118.99
584;HTU21D;27024;54.068;12.116;2023-10-13T15:14:23;18.56;118.99
584;HTU21D;27024;54.068;12.116;2023-10-13T15:16:51;18.57;118.99
584;HTU21D;27024;54.068;12.116;2023-10-13T15:19:22;18.55;118.99
584;HTU21D;27024;54.068;12.116;2023-10-13T15:21:50;18.47;118.99
584;HTU21D;27024;54.068;12.116;2023-10-13T15:24:17;18.43;118.99
584;HTU21D;27024;54.068;12.116;2023-10-13T15:26:54;18.49;118.99
584;HTU21D;27024;54.068;12.116;2023-10-13T15:29:33;18.49;118.99
584;HTU21D;27024;54.068;12.116;2023-10-13T15:32:05;18.46;118.99
584;HTU21D;27024;54.068;12.116;2023-10-13T15:34:53;18.40;118.99
584;HTU21D;27024;54.068;12.116;2023-10-13T15:37:21;18.46;118.99
584;HTU21D;27024;54.068;12.116;2023-10-13T15:39:52;18.42;118.99
584;HTU21D;27024;54.068;12.116;2023-10-13T15:42:19;18.38;118.99
584;HTU21D;27024;54.068;12.116;2023-10-13T15:44:47;18.42;118.99
584;HTU21D;27024;54.068;12.116;2023-10-13T15:47:16;18.40;118.99
584;HTU21D;27024;54.068;12.116;2023-10-13T15:49:47;18.39;118.99
584;HTU21D;27024;54.068;12.116;2023-10-13T15:52:14;18.42;118.99
584;HTU21D;27024;54.068;12.116;2023-10-13T15:54:42;18.43;118.99
584;HTU21D;27024;54.068;12.116;2023-10-13T15:57:09;18.43;118.99
584;HTU21D;27024;54.068;12.116;2023-10-13T15:59:43;18.41;118.99
584;HTU21D;27024;54.068;12.116;2023-10-13T16:02:13;18.49;118.99
584;HTU21D;27024;54.068;12.116;2023-10-13T16:04:44;18.53;118.99
584;HTU21D;27024;54.068;12.116;2023-10-13T16:07:11;18.52;118.99
584;HTU21D;27024;54.068;12.116;2023-10-13T16:09:38;18.48;118.99
584;HTU21D;27024;54.068;12.116;2023-10-13T16:12:05;18.50;118.99
584;HTU21D;27024;54.068;12.116;2023-10-13T16:14:37;18.52;118.99
584;HTU21D;27024;54.068;12.116;2023-10-13T16:17:05;18.43;118.99
584;HTU21D;27024;54.068;12.116;2023-10-13T16:19:36;18.43;118.99
584;HTU21D;27024;54.068;12.116;2023-10-13T16:22:06;18.39;118.99
584;HTU21D;27024;54.068;12.116;2023-10-13T16:24:36;18.43;118.99
584;HTU21D;27024;54.068;12.116;2023-10-13T16:27:05;18.44;118.99
584;HTU21D;27024;54.068;12.116;2023-10-13T16:29:33;18.40;118.99
584;HTU21D;27024;54.068;12.116;2023-10-13T16:31:59;18.38;118.99
584;HTU21D;27024;54.068;12.116;2023-10-13T16:34:26;18.46;118.99
584;HTU21D;27024;54.068;12.116;2023-10-13T16:36:53;18.42;118.99
584;HTU21D;27024;54.068;12.116;2023-10-13T16:39:22;18.41;118.99